sensor_id;sensor_type;location;lat;lon;timestamp;P1;durP1;ratioP1;P2;durP2;ratioP2
22861;SDS011;11598;50.652;6.172;2023-04-01T00:02:37;3.83;;;0.57;;
22861;SDS011;11598;50.652;6.172;2023-04-01T00:12:38;5.40;;;0.50;;
22861;SDS011;11598;50.652;6.172;2023-04-01T00:22:38;5.80;;;1.02;;
22861;SDS011;11598;50.652;6.172;2023-04-01T00:32:39;2.42;;;0.30;;
22861;SDS011;11598;50.652;6.172;2023-04-01T00:42:39;5.22;;;0.40;;
22861;SDS011;11598;50.652;6.172;2023-04-01T00:52:39;2.97;;;0.50;;
22861;SDS011;11598;50.652;6.172;2023-04-01T01:02:44;5.43;;;0.50;;
22861;SDS011;11598;50.652;6.172;2023-04-01T01:12:46;1.50;;;0.40;;
22861;SDS011;11598;50.652;6.172;2023-04-01T01:44:03;5.72;;;0.40;;
22861;SDS011;11598;50.652;6.172;2023-04-01T01:54:07;3.22;;;0.68;;
22861;SDS011;11598;50.652;6.172;2023-04-01T02:04:13;2.90;;;0.30;;
22861;SDS011;11598;50.652;6.172;2023-04-01T02:14:16;3.15;;;0.20;;
22861;SDS011;11598;50.652;6.172;2023-04-01T02:24:20;1.52;;;0.30;;
22861;SDS011;11598;50.652;6.172;2023-04-01T02:34:23;1.45;;;0.20;;
22861;SDS011;11598;50.652;6.172;2023-04-01T02:44:25;4.07;;;0.30;;
22861;SDS011;11598;50.652;6.172;2023-04-01T02:54:25;1.45;;;0.20;;
22861;SDS011;11598;50.652;6.172;2023-04-01T03:04:26;1.23;;;0.10;;
22861;SDS011;11598;50.652;6.172;2023-04-01T03:14:26;0.43;;;0.00;;
22861;SDS011;11598;50.652;6.172;2023-04-01T03:24:26;0.65;;;0.10;;
22861;SDS011;11598;50.652;6.172;2023-04-01T03:34:27;1.00;;;0.13;;
22861;SDS011;11598;50.652;6.172;2023-04-01T03:44:31;0.30;;;0.20;;
22861;SDS011;11598;50.652;6.172;2023-04-01T03:54:32;1.73;;;0.20;;
22861;SDS011;11598;50.652;6.172;2023-04-01T04:04:32;0.20;;;0.10;;
22861;SDS011;11598;50.652;6.172;2023-04-01T04:14:34;0.47;;;0.10;;
22861;SDS011;11598;50.652;6.172;2023-04-01T04:24:34;0.68;;;0.20;;
22861;SDS011;11598;50.652;6.172;2023-04-01T04:34:35;0.75;;;0.20;;
22861;SDS011;11598;50.652;6.172;2023-04-01T04:44:36;6.13;;;1.05;;
22861;SDS011;11598;50.652;6.172;2023-04-01T04:54:36;3.45;;;0.70;;
22861;SDS011;11598;50.652;6.172;2023-04-01T05:04:37;2.30;;;0.95;;
22861;SDS011;11598;50.652;6.172;2023-04-01T05:14:37;4.97;;;1.50;;
22861;SDS011;11598;50.652;6.172;2023-04-01T05:24:38;4.65;;;1.95;;
22861;SDS011;11598;50.652;6.172;2023-04-01T05:34:38;7.45;;;2.25;;
22861;SDS011;11598;50.652;6.172;2023-04-01T05:44:38;4.75;;;1.83;;
22861;SDS011;11598;50.652;6.172;2023-04-01T05:54:39;5.10;;;1.60;;
22861;SDS011;11598;50.652;6.172;2023-04-01T06:04:40;5.03;;;1.90;;
22861;SDS011;11598;50.652;6.172;2023-04-01T06:24:57;9.25;;;3.70;;
22861;SDS011;11598;50.652;6.172;2023-04-01T06:35:02;6.57;;;2.90;;
22861;SDS011;11598;50.652;6.172;2023-04-01T06:45:45;6.03;;;2.40;;
22861;SDS011;11598;50.652;6.172;2023-04-01T07:06:12;3.28;;;1.02;;
22861;SDS011;11598;50.652;6.172;2023-04-01T07:26:58;3.97;;;1.52;;
22861;SDS011;11598;50.652;6.172;2023-04-01T07:47:11;3.40;;;1.38;;
22861;SDS011;11598;50.652;6.172;2023-04-01T08:07:56;4.97;;;1.30;;
22861;SDS011;11598;50.652;6.172;2023-04-01T08:28:51;4.95;;;2.15;;
22861;SDS011;11598;50.652;6.172;2023-04-01T08:39:18;7.03;;;2.17;;
22861;SDS011;11598;50.652;6.172;2023-04-01T08:49:41;5.07;;;1.50;;
22861;SDS011;11598;50.652;6.172;2023-04-01T11:24:04;3.63;;;1.65;;
22861;SDS011;11598;50.652;6.172;2023-04-01T11:44:58;3.05;;;0.88;;
22861;SDS011;11598;50.652;6.172;2023-04-01T11:55:31;3.10;;;0.93;;
22861;SDS011;11598;50.652;6.172;2023-04-01T12:16:44;3.78;;;1.42;;
22861;SDS011;11598;50.652;6.172;2023-04-01T12:37:28;5.40;;;1.40;;
22861;SDS011;11598;50.652;6.172;2023-04-01T14:52:09;9.07;;;4.05;;
22861;SDS011;11598;50.652;6.172;2023-04-01T15:33:15;5.57;;;3.13;;
22861;SDS011;11598;50.652;6.172;2023-04-01T16:55:16;7.90;;;4.28;;
22861;SDS011;11598;50.652;6.172;2023-04-01T17:05:18;7.50;;;4.70;;
22861;SDS011;11598;50.652;6.172;2023-04-01T17:15:35;7.55;;;4.20;;
22861;SDS011;11598;50.652;6.172;2023-04-01T18:38:35;5.93;;;3.05;;
22861;SDS011;11598;50.652;6.172;2023-04-01T18:58:48;7.40;;;2.67;;
22861;SDS011;11598;50.652;6.172;2023-04-01T19:08:53;5.78;;;3.15;;
22861;SDS011;11598;50.652;6.172;2023-04-01T19:50:00;5.85;;;3.50;;
22861;SDS011;11598;50.652;6.172;2023-04-01T20:00:42;7.00;;;3.47;;
22861;SDS011;11598;50.652;6.172;2023-04-01T20:10:48;8.75;;;3.42;;
22861;SDS011;11598;50.652;6.172;2023-04-01T20:21:02;21.37;;;4.23;;
22861;SDS011;11598;50.652;6.172;2023-04-01T20:31:13;8.45;;;4.20;;
22861;SDS011;11598;50.652;6.172;2023-04-01T20:41:27;9.15;;;4.00;;
22861;SDS011;11598;50.652;6.172;2023-04-01T20:51:45;7.28;;;3.30;;
22861;SDS011;11598;50.652;6.172;2023-04-01T21:02:11;4.85;;;2.28;;
22861;SDS011;11598;50.652;6.172;2023-04-01T21:22:40;7.63;;;3.42;;
22861;SDS011;11598;50.652;6.172;2023-04-01T22:04:32;11.90;;;3.38;;
22861;SDS011;11598;50.652;6.172;2023-04-01T22:25:10;52.83;;;4.07;;
22861;SDS011;11598;50.652;6.172;2023-04-01T22:55:49;224.60;;;8.05;;
22861;SDS011;11598;50.652;6.172;2023-04-01T23:15:57;107.00;;;4.78;;
22861;SDS011;11598;50.652;6.172;2023-04-01T23:26:12;84.13;;;2.70;;
22861;SDS011;11598;50.652;6.172;2023-04-01T23:36:20;108.55;;;3.88;;
22861;SDS011;11598;50.652;6.172;2023-04-01T23:46:21;295.13;;;12.13;;
22861;SDS011;11598;50.652;6.172;2023-04-01T23:56:22;598.72;;;21.77;;
